DEKT2: Red River, Dekalb, TX

Data processed at Fri Mar 09 2018 23:30


All information presented herein is the property of the government of the United States of America and may be revised or deleted at any time without prior notice.
Dissemination of this information without the expressed written consent of the Public Affairs Office, Tulsa District U.S. Army Corps of Engineers is strictly prohibited.
These data are gathered electronically and, as presented, have not undergone any form of quality control. These data are not guaranteed to be valid or correct.
Go to home page.
Go to station list.

Upstream stations:

Downstream station:
Previous Day
Next Day
Current Day
    
SHEF ID:       DEKT2     Red River near De Kalb, TX
STATION TYPE:  

               PRECIP     STAGE  STAGE(2)  RIV-FLOW  BAT-LOAD
                   in        ft        ft       cfs      volt
              Ccp-Rev   Ccp-Rev   Ccp-Rev   Ccp-Rev   Ccp-Rev
(US/Central)
03/07 00:00      0.00     19.19     19.80     33253     12.65
03/07 01:00      0.00     19.20     19.78     33296     12.65
03/07 02:00      0.00     19.18     19.78     33210     12.65
03/07 03:00      0.00     19.18     19.79     33210     12.57
03/07 04:00      0.00     19.18     19.78     33210     12.57
03/07 05:00      0.00     19.15     19.76     33080     12.57
03/07 06:00      0.00     19.14     19.71     33037     12.49
03/07 07:00      0.00     19.13     19.71     32994     12.49
03/07 08:00      0.00     19.12     19.74     32951     12.57
03/07 09:00      0.00     19.10     19.73     32865     13.13
03/07 10:00      0.00     19.08     19.71     32779     13.92
03/07 11:00      0.00     19.05     19.65     32650     13.84
03/07 12:00      0.00     19.03     19.62     32565     13.76
03/07 13:00      0.00     19.00     19.53     32437     13.76
03/07 14:00      0.00     18.97     19.57     32309     13.84
03/07 15:00      0.00     18.96     19.55     32266     13.84
03/07 16:00      0.00     18.94     19.54     32181     13.84
03/07 17:00      0.00     18.91     19.52     32053     13.76
03/07 18:00      0.00     18.90     19.48     32011     13.29
03/07 19:00      0.00     18.90     19.48     32011     13.13
03/07 20:00      0.00     18.88     19.47     31926     12.81
03/07 21:00      0.00     18.87     19.45     31884     12.73
03/07 22:00      0.00     18.85     19.43     31799     12.65
03/07 23:00      0.00     18.83     19.41     31715     12.65